sensor_id;sensor_type;location;lat;lon;timestamp;temperature;humidity
20483;DHT22;10400;53.198;6.592;2023-07-02T00:01:41;16.90;1.00
20483;DHT22;10400;53.198;6.592;2023-07-02T00:04:07;16.80;1.00
20483;DHT22;10400;53.198;6.592;2023-07-02T00:06:34;16.80;1.00
20483;DHT22;10400;53.198;6.592;2023-07-02T00:09:06;16.70;1.00
20483;DHT22;10400;53.198;6.592;2023-07-02T00:11:32;16.70;4.00
20483;DHT22;10400;53.198;6.592;2023-07-02T00:13:57;16.60;16.70
20483;DHT22;10400;53.198;6.592;2023-07-02T00:16:23;16.60;12.80
20483;DHT22;10400;53.198;6.592;2023-07-02T00:18:48;16.60;8.00
20483;DHT22;10400;53.198;6.592;2023-07-02T00:21:18;16.60;12.60
20483;DHT22;10400;53.198;6.592;2023-07-02T00:23:44;16.60;12.30
20483;DHT22;10400;53.198;6.592;2023-07-02T00:26:10;16.40;20.50
20483;DHT22;10400;53.198;6.592;2023-07-02T00:28:36;16.50;28.80
20483;DHT22;10400;53.198;6.592;2023-07-02T00:31:01;16.40;24.30
20483;DHT22;10400;53.198;6.592;2023-07-02T00:33:27;16.50;25.10
20483;DHT22;10400;53.198;6.592;2023-07-02T00:35:54;16.50;22.30
20483;DHT22;10400;53.198;6.592;2023-07-02T00:38:20;16.50;14.10
20483;DHT22;10400;53.198;6.592;2023-07-02T00:40:46;16.40;18.30
20483;DHT22;10400;53.198;6.592;2023-07-02T00:43:12;16.40;19.10
20483;DHT22;10400;53.198;6.592;2023-07-02T00:45:39;16.40;20.60
20483;DHT22;10400;53.198;6.592;2023-07-02T00:48:06;16.40;19.40
20483;DHT22;10400;53.198;6.592;2023-07-02T00:50:32;16.30;22.50
20483;DHT22;10400;53.198;6.592;2023-07-02T00:52:58;16.30;25.60
20483;DHT22;10400;53.198;6.592;2023-07-02T00:55:24;16.30;23.60
20483;DHT22;10400;53.198;6.592;2023-07-02T00:57:50;16.30;20.60
20483;DHT22;10400;53.198;6.592;2023-07-02T01:00:16;16.30;28.70
20483;DHT22;10400;53.198;6.592;2023-07-02T01:02:42;16.20;29.20
20483;DHT22;10400;53.198;6.592;2023-07-02T01:05:16;16.20;30.80
20483;DHT22;10400;53.198;6.592;2023-07-02T01:07:42;16.20;37.60
20483;DHT22;10400;53.198;6.592;2023-07-02T01:10:08;16.20;42.60
20483;DHT22;10400;53.198;6.592;2023-07-02T01:12:35;16.20;39.60
20483;DHT22;10400;53.198;6.592;2023-07-02T01:15:03;16.20;44.20
20483;DHT22;10400;53.198;6.592;2023-07-02T01:17:31;16.10;47.60
20483;DHT22;10400;53.198;6.592;2023-07-02T01:20:08;16.20;47.60
20483;DHT22;10400;53.198;6.592;2023-07-02T01:22:35;16.10;50.80
20483;DHT22;10400;53.198;6.592;2023-07-02T01:25:01;16.10;55.10
20483;DHT22;10400;53.198;6.592;2023-07-02T01:27:30;16.10;57.70
20483;DHT22;10400;53.198;6.592;2023-07-02T01:29:56;16.10;59.50
20483;DHT22;10400;53.198;6.592;2023-07-02T01:32:22;16.10;58.60
20483;DHT22;10400;53.198;6.592;2023-07-02T01:34:48;16.00;62.80
20483;DHT22;10400;53.198;6.592;2023-07-02T01:37:14;16.00;72.00
20483;DHT22;10400;53.198;6.592;2023-07-02T01:39:40;16.00;74.00
20483;DHT22;10400;53.198;6.592;2023-07-02T01:42:15;16.00;74.30
20483;DHT22;10400;53.198;6.592;2023-07-02T01:44:43;15.90;83.20
20483;DHT22;10400;53.198;6.592;2023-07-02T01:47:09;15.90;84.60
20483;DHT22;10400;53.198;6.592;2023-07-02T01:49:34;15.90;84.50
20483;DHT22;10400;53.198;6.592;2023-07-02T01:52:01;15.80;87.30
20483;DHT22;10400;53.198;6.592;2023-07-02T01:54:27;15.80;91.30
20483;DHT22;10400;53.198;6.592;2023-07-02T01:56:54;15.80;95.50
20483;DHT22;10400;53.198;6.592;2023-07-02T01:59:20;15.70;95.90
20483;DHT22;10400;53.198;6.592;2023-07-02T02:01:46;15.70;95.50
20483;DHT22;10400;53.198;6.592;2023-07-02T02:04:12;15.70;94.60
20483;DHT22;10400;53.198;6.592;2023-07-02T02:06:38;15.70;97.10
20483;DHT22;10400;53.198;6.592;2023-07-02T02:09:04;15.70;96.60
20483;DHT22;10400;53.198;6.592;2023-07-02T02:11:31;15.60;97.50
20483;DHT22;10400;53.198;6.592;2023-07-02T02:14:00;15.60;97.10
20483;DHT22;10400;53.198;6.592;2023-07-02T02:16:29;15.60;99.90
20483;DHT22;10400;53.198;6.592;2023-07-02T02:18:54;15.50;99.90
20483;DHT22;10400;53.198;6.592;2023-07-02T02:21:21;15.50;99.90
20483;DHT22;10400;53.198;6.592;2023-07-02T02:23:48;15.50;99.90
20483;DHT22;10400;53.198;6.592;2023-07-02T02:26:14;15.40;99.90
20483;DHT22;10400;53.198;6.592;2023-07-02T02:28:41;15.40;99.90
20483;DHT22;10400;53.198;6.592;2023-07-02T02:31:06;15.40;99.90
20483;DHT22;10400;53.198;6.592;2023-07-02T02:33:32;15.40;99.90
20483;DHT22;10400;53.198;6.592;2023-07-02T02:35:58;15.40;99.90
20483;DHT22;10400;53.198;6.592;2023-07-02T02:38:24;15.40;99.90
20483;DHT22;10400;53.198;6.592;2023-07-02T02:40:50;15.30;99.90
20483;DHT22;10400;53.198;6.592;2023-07-02T02:43:15;15.30;99.90
20483;DHT22;10400;53.198;6.592;2023-07-02T02:45:44;15.30;99.90
20483;DHT22;10400;53.198;6.592;2023-07-02T02:48:10;15.30;99.90
20483;DHT22;10400;53.198;6.592;2023-07-02T02:50:36;15.20;99.90
20483;DHT22;10400;53.198;6.592;2023-07-02T02:53:03;15.20;99.90
20483;DHT22;10400;53.198;6.592;2023-07-02T02:55:29;15.20;99.90
20483;DHT22;10400;53.198;6.592;2023-07-02T02:57:54;15.20;99.90
20483;DHT22;10400;53.198;6.592;2023-07-02T03:00:20;15.20;99.90
20483;DHT22;10400;53.198;6.592;2023-07-02T03:02:46;15.20;99.90
20483;DHT22;10400;53.198;6.592;2023-07-02T03:05:11;15.20;99.90
20483;DHT22;10400;53.198;6.592;2023-07-02T03:07:38;15.20;99.90
20483;DHT22;10400;53.198;6.592;2023-07-02T03:10:04;15.20;99.90
20483;DHT22;10400;53.198;6.592;2023-07-02T03:12:30;15.20;99.90
20483;DHT22;10400;53.198;6.592;2023-07-02T03:14:56;15.10;99.90
20483;DHT22;10400;53.198;6.592;2023-07-02T03:17:21;15.10;99.90
20483;DHT22;10400;53.198;6.592;2023-07-02T03:19:47;15.10;99.90
20483;DHT22;10400;53.198;6.592;2023-07-02T03:22:13;15.00;99.90
20483;DHT22;10400;53.198;6.592;2023-07-02T03:24:39;15.00;99.90
20483;DHT22;10400;53.198;6.592;2023-07-02T03:27:05;14.90;99.90
20483;DHT22;10400;53.198;6.592;2023-07-02T03:29:31;15.00;99.90
20483;DHT22;10400;53.198;6.592;2023-07-02T03:31:57;15.00;99.90
20483;DHT22;10400;53.198;6.592;2023-07-02T03:34:22;15.00;99.90
20483;DHT22;10400;53.198;6.592;2023-07-02T03:36:49;15.00;99.90
20483;DHT22;10400;53.198;6.592;2023-07-02T03:39:15;15.00;99.90
20483;DHT22;10400;53.198;6.592;2023-07-02T03:41:41;15.00;99.90
20483;DHT22;10400;53.198;6.592;2023-07-02T03:44:07;15.00;99.90
20483;DHT22;10400;53.198;6.592;2023-07-02T03:46:33;15.00;99.90
20483;DHT22;10400;53.198;6.592;2023-07-02T03:48:59;15.00;99.90
20483;DHT22;10400;53.198;6.592;2023-07-02T03:51:24;15.00;99.90
20483;DHT22;10400;53.198;6.592;2023-07-02T03:53:50;15.00;99.90
20483;DHT22;10400;53.198;6.592;2023-07-02T03:56:16;14.90;99.90
20483;DHT22;10400;53.198;6.592;2023-07-02T03:58:41;15.00;99.90
20483;DHT22;10400;53.198;6.592;2023-07-02T04:01:07;15.10;99.90
20483;DHT22;10400;53.198;6.592;2023-07-02T04:03:33;15.10;99.90
20483;DHT22;10400;53.198;6.592;2023-07-02T04:05:59;15.10;99.90
20483;DHT22;10400;53.198;6.592;2023-07-02T04:08:24;15.10;99.90
20483;DHT22;10400;53.198;6.592;2023-07-02T04:10:50;15.20;99.90
20483;DHT22;10400;53.198;6.592;2023-07-02T04:13:16;15.20;99.90
20483;DHT22;10400;53.198;6.592;2023-07-02T04:15:42;15.20;99.90
20483;DHT22;10400;53.198;6.592;2023-07-02T04:18:08;15.30;99.90
20483;DHT22;10400;53.198;6.592;2023-07-02T04:20:33;15.30;99.90
20483;DHT22;10400;53.198;6.592;2023-07-02T04:22:59;15.30;99.90
20483;DHT22;10400;53.198;6.592;2023-07-02T04:25:25;15.30;99.90
20483;DHT22;10400;53.198;6.592;2023-07-02T04:27:51;15.40;99.90
20483;DHT22;10400;53.198;6.592;2023-07-02T04:30:21;15.40;99.90
20483;DHT22;10400;53.198;6.592;2023-07-02T04:32:47;15.50;99.90
20483;DHT22;10400;53.198;6.592;2023-07-02T04:35:13;15.50;99.90
20483;DHT22;10400;53.198;6.592;2023-07-02T04:37:38;15.60;99.90
20483;DHT22;10400;53.198;6.592;2023-07-02T04:40:05;15.60;99.90
20483;DHT22;10400;53.198;6.592;2023-07-02T04:42:38;15.60;99.90
20483;DHT22;10400;53.198;6.592;2023-07-02T04:45:07;15.50;99.90
20483;DHT22;10400;53.198;6.592;2023-07-02T04:47:36;15.50;99.90
20483;DHT22;10400;53.198;6.592;2023-07-02T04:50:02;15.60;99.90
20483;DHT22;10400;53.198;6.592;2023-07-02T04:52:28;15.60;99.90
20483;DHT22;10400;53.198;6.592;2023-07-02T04:54:53;15.70;99.90
20483;DHT22;10400;53.198;6.592;2023-07-02T04:57:21;15.70;99.90
20483;DHT22;10400;53.198;6.592;2023-07-02T04:59:47;15.80;99.90
20483;DHT22;10400;53.198;6.592;2023-07-02T05:02:13;15.80;99.90
20483;DHT22;10400;53.198;6.592;2023-07-02T05:04:38;15.80;99.90
20483;DHT22;10400;53.198;6.592;2023-07-02T05:07:04;15.80;99.90
20483;DHT22;10400;53.198;6.592;2023-07-02T05:09:30;16.00;99.90
20483;DHT22;10400;53.198;6.592;2023-07-02T05:11:55;16.10;98.80
20483;DHT22;10400;53.198;6.592;2023-07-02T05:14:21;16.10;93.90
20483;DHT22;10400;53.198;6.592;2023-07-02T05:16:48;16.30;92.90
20483;DHT22;10400;53.198;6.592;2023-07-02T05:19:14;16.50;80.70
20483;DHT22;10400;53.198;6.592;2023-07-02T05:21:40;16.80;55.20
20483;DHT22;10400;53.198;6.592;2023-07-02T05:24:05;16.70;23.60
20483;DHT22;10400;53.198;6.592;2023-07-02T05:26:32;16.70;20.80
20483;DHT22;10400;53.198;6.592;2023-07-02T05:28:58;16.60;7.50
20483;DHT22;10400;53.198;6.592;2023-07-02T05:31:23;16.60;1.00
20483;DHT22;10400;53.198;6.592;2023-07-02T05:33:49;16.50;1.00
20483;DHT22;10400;53.198;6.592;2023-07-02T05:36:15;16.40;4.10
20483;DHT22;10400;53.198;6.592;2023-07-02T05:38:41;16.40;1.00
20483;DHT22;10400;53.198;6.592;2023-07-02T05:41:06;16.30;1.00
20483;DHT22;10400;53.198;6.592;2023-07-02T05:43:32;16.40;1.00
20483;DHT22;10400;53.198;6.592;2023-07-02T05:45:58;16.50;1.00
20483;DHT22;10400;53.198;6.592;2023-07-02T05:48:28;16.60;1.00
20483;DHT22;10400;53.198;6.592;2023-07-02T05:50:54;16.70;1.00
20483;DHT22;10400;53.198;6.592;2023-07-02T05:53:20;16.90;1.00
20483;DHT22;10400;53.198;6.592;2023-07-02T05:55:46;17.10;1.00
20483;DHT22;10400;53.198;6.592;2023-07-02T05:58:12;17.30;1.00
20483;DHT22;10400;53.198;6.592;2023-07-02T06:00:38;17.20;1.00
20483;DHT22;10400;53.198;6.592;2023-07-02T06:03:06;17.20;1.00
20483;DHT22;10400;53.198;6.592;2023-07-02T06:05:32;17.20;1.00
20483;DHT22;10400;53.198;6.592;2023-07-02T06:07:58;17.30;1.00
20483;DHT22;10400;53.198;6.592;2023-07-02T06:10:24;17.40;1.00
20483;DHT22;10400;53.198;6.592;2023-07-02T06:12:49;17.30;1.00
20483;DHT22;10400;53.198;6.592;2023-07-02T06:15:15;17.30;1.00
20483;DHT22;10400;53.198;6.592;2023-07-02T06:17:41;17.20;1.00
20483;DHT22;10400;53.198;6.592;2023-07-02T06:20:07;17.20;1.00
20483;DHT22;10400;53.198;6.592;2023-07-02T06:22:33;17.10;1.00
20483;DHT22;10400;53.198;6.592;2023-07-02T06:24:58;17.30;1.00
20483;DHT22;10400;53.198;6.592;2023-07-02T06:27:24;17.40;1.00
20483;DHT22;10400;53.198;6.592;2023-07-02T06:29:50;17.40;1.00
20483;DHT22;10400;53.198;6.592;2023-07-02T06:32:17;17.60;1.00
20483;DHT22;10400;53.198;6.592;2023-07-02T06:34:42;17.80;1.00
20483;DHT22;10400;53.198;6.592;2023-07-02T06:37:08;17.90;1.00
20483;DHT22;10400;53.198;6.592;2023-07-02T06:39:33;17.90;1.00
20483;DHT22;10400;53.198;6.592;2023-07-02T06:41:59;18.00;1.00
20483;DHT22;10400;53.198;6.592;2023-07-02T06:44:25;17.90;1.00
20483;DHT22;10400;53.198;6.592;2023-07-02T06:46:50;18.00;1.00
20483;DHT22;10400;53.198;6.592;2023-07-02T06:49:16;18.30;1.00
20483;DHT22;10400;53.198;6.592;2023-07-02T06:51:41;18.30;99.90
20483;DHT22;10400;53.198;6.592;2023-07-02T06:54:07;18.10;99.90
20483;DHT22;10400;53.198;6.592;2023-07-02T06:56:33;17.90;1.00
20483;DHT22;10400;53.198;6.592;2023-07-02T06:59:00;17.70;99.90
20483;DHT22;10400;53.198;6.592;2023-07-02T07:01:25;17.90;99.90
20483;DHT22;10400;53.198;6.592;2023-07-02T07:03:51;18.00;1.00
20483;DHT22;10400;53.198;6.592;2023-07-02T07:06:17;18.00;1.00
20483;DHT22;10400;53.198;6.592;2023-07-02T07:08:43;18.00;1.00
20483;DHT22;10400;53.198;6.592;2023-07-02T07:11:08;18.10;1.00
20483;DHT22;10400;53.198;6.592;2023-07-02T07:13:34;18.00;88.70
20483;DHT22;10400;53.198;6.592;2023-07-02T07:15:59;18.00;1.00
20483;DHT22;10400;53.198;6.592;2023-07-02T07:18:25;18.10;1.00
20483;DHT22;10400;53.198;6.592;2023-07-02T07:20:51;18.20;1.00
20483;DHT22;10400;53.198;6.592;2023-07-02T07:23:18;18.30;99.90
20483;DHT22;10400;53.198;6.592;2023-07-02T07:25:44;18.30;1.00
20483;DHT22;10400;53.198;6.592;2023-07-02T07:28:10;18.30;1.00
20483;DHT22;10400;53.198;6.592;2023-07-02T07:30:43;18.30;1.00
20483;DHT22;10400;53.198;6.592;2023-07-02T07:33:10;18.50;1.00
20483;DHT22;10400;53.198;6.592;2023-07-02T07:35:36;18.50;15.80
20483;DHT22;10400;53.198;6.592;2023-07-02T07:38:02;18.60;99.90
20483;DHT22;10400;53.198;6.592;2023-07-02T07:40:28;18.80;1.00
20483;DHT22;10400;53.198;6.592;2023-07-02T07:42:53;18.60;1.00
20483;DHT22;10400;53.198;6.592;2023-07-02T07:45:19;18.80;1.00
20483;DHT22;10400;53.198;6.592;2023-07-02T07:47:44;18.60;99.90
20483;DHT22;10400;53.198;6.592;2023-07-02T07:50:10;18.50;1.00
20483;DHT22;10400;53.198;6.592;2023-07-02T07:52:39;18.60;1.00
20483;DHT22;10400;53.198;6.592;2023-07-02T07:55:06;18.80;99.90
20483;DHT22;10400;53.198;6.592;2023-07-02T07:57:33;18.70;1.00
20483;DHT22;10400;53.198;6.592;2023-07-02T07:59:59;18.80;1.00
20483;DHT22;10400;53.198;6.592;2023-07-02T08:02:24;19.00;1.00
20483;DHT22;10400;53.198;6.592;2023-07-02T08:04:50;19.10;99.90
20483;DHT22;10400;53.198;6.592;2023-07-02T08:07:16;19.30;1.00
20483;DHT22;10400;53.198;6.592;2023-07-02T08:09:41;19.50;1.00
20483;DHT22;10400;53.198;6.592;2023-07-02T08:12:07;19.60;99.90
20483;DHT22;10400;53.198;6.592;2023-07-02T08:14:34;19.80;1.00
20483;DHT22;10400;53.198;6.592;2023-07-02T08:17:00;19.70;99.90
20483;DHT22;10400;53.198;6.592;2023-07-02T08:19:26;19.30;99.90
20483;DHT22;10400;53.198;6.592;2023-07-02T08:21:52;19.00;1.00
20483;DHT22;10400;53.198;6.592;2023-07-02T08:24:17;18.70;99.90
20483;DHT22;10400;53.198;6.592;2023-07-02T08:26:43;18.40;1.00
20483;DHT22;10400;53.198;6.592;2023-07-02T08:29:10;18.20;1.00
20483;DHT22;10400;53.198;6.592;2023-07-02T08:31:36;18.10;1.00
20483;DHT22;10400;53.198;6.592;2023-07-02T08:34:02;18.00;19.60
20483;DHT22;10400;53.198;6.592;2023-07-02T08:36:28;17.90;99.90
20483;DHT22;10400;53.198;6.592;2023-07-02T08:38:53;17.90;1.00
20483;DHT22;10400;53.198;6.592;2023-07-02T08:41:21;17.80;1.00
20483;DHT22;10400;53.198;6.592;2023-07-02T08:43:47;17.70;1.00
20483;DHT22;10400;53.198;6.592;2023-07-02T08:46:15;17.90;1.00
20483;DHT22;10400;53.198;6.592;2023-07-02T08:48:41;18.30;1.00
20483;DHT22;10400;53.198;6.592;2023-07-02T08:51:07;18.10;99.90
20483;DHT22;10400;53.198;6.592;2023-07-02T08:53:33;18.10;1.00
20483;DHT22;10400;53.198;6.592;2023-07-02T08:56:03;18.40;99.90
20483;DHT22;10400;53.198;6.592;2023-07-02T08:58:29;18.80;99.90
20483;DHT22;10400;53.198;6.592;2023-07-02T09:01:12;19.10;1.00
20483;DHT22;10400;53.198;6.592;2023-07-02T09:03:38;19.50;37.60
20483;DHT22;10400;53.198;6.592;2023-07-02T09:06:05;19.40;1.00
20483;DHT22;10400;53.198;6.592;2023-07-02T09:08:31;19.70;99.90
20483;DHT22;10400;53.198;6.592;2023-07-02T09:11:12;19.90;1.00
20483;DHT22;10400;53.198;6.592;2023-07-02T09:13:49;20.00;1.00
20483;DHT22;10400;53.198;6.592;2023-07-02T09:16:33;20.00;1.00
20483;DHT22;10400;53.198;6.592;2023-07-02T09:19:06;19.90;1.00
20483;DHT22;10400;53.198;6.592;2023-07-02T09:23:31;20.20;99.90
20483;DHT22;10400;53.198;6.592;2023-07-02T09:25:57;19.90;1.00
20483;DHT22;10400;53.198;6.592;2023-07-02T09:28:22;20.10;1.00
20483;DHT22;10400;53.198;6.592;2023-07-02T09:30:56;20.10;1.00
20483;DHT22;10400;53.198;6.592;2023-07-02T09:33:27;20.30;1.00
20483;DHT22;10400;53.198;6.592;2023-07-02T09:35:52;20.30;99.90
20483;DHT22;10400;53.198;6.592;2023-07-02T09:38:22;20.50;1.00
20483;DHT22;10400;53.198;6.592;2023-07-02T09:40:50;20.70;99.90
20483;DHT22;10400;53.198;6.592;2023-07-02T09:43:16;20.80;1.00
20483;DHT22;10400;53.198;6.592;2023-07-02T09:45:46;20.70;1.00
20483;DHT22;10400;53.198;6.592;2023-07-02T09:48:16;20.80;1.00
20483;DHT22;10400;53.198;6.592;2023-07-02T09:50:44;20.80;1.00
20483;DHT22;10400;53.198;6.592;2023-07-02T09:53:10;20.40;1.00
20483;DHT22;10400;53.198;6.592;2023-07-02T09:55:37;20.20;1.00
20483;DHT22;10400;53.198;6.592;2023-07-02T09:58:03;19.80;99.90
20483;DHT22;10400;53.198;6.592;2023-07-02T10:00:28;19.90;99.90
20483;DHT22;10400;53.198;6.592;2023-07-02T10:02:54;20.20;99.90
20483;DHT22;10400;53.198;6.592;2023-07-02T10:05:38;20.30;89.20
20483;DHT22;10400;53.198;6.592;2023-07-02T10:08:15;20.60;1.00
20483;DHT22;10400;53.198;6.592;2023-07-02T10:10:46;20.70;5.40
20483;DHT22;10400;53.198;6.592;2023-07-02T10:13:12;20.40;97.40
20483;DHT22;10400;53.198;6.592;2023-07-02T10:15:38;20.10;99.90
20483;DHT22;10400;53.198;6.592;2023-07-02T10:18:05;20.40;1.00
20483;DHT22;10400;53.198;6.592;2023-07-02T10:20:37;20.20;1.00
20483;DHT22;10400;53.198;6.592;2023-07-02T10:23:04;20.30;1.00
20483;DHT22;10400;53.198;6.592;2023-07-02T10:25:31;20.20;1.00
20483;DHT22;10400;53.198;6.592;2023-07-02T10:27:58;20.30;1.00
20483;DHT22;10400;53.198;6.592;2023-07-02T10:30:36;20.40;1.00
20483;DHT22;10400;53.198;6.592;2023-07-02T10:33:11;20.40;1.00
20483;DHT22;10400;53.198;6.592;2023-07-02T10:35:38;20.10;1.00
20483;DHT22;10400;53.198;6.592;2023-07-02T10:38:05;20.00;1.00
20483;DHT22;10400;53.198;6.592;2023-07-02T10:40:32;19.90;1.00
20483;DHT22;10400;53.198;6.592;2023-07-02T10:42:59;19.80;1.00
20483;DHT22;10400;53.198;6.592;2023-07-02T10:45:32;19.60;75.60
20483;DHT22;10400;53.198;6.592;2023-07-02T10:47:58;20.10;1.00
20483;DHT22;10400;53.198;6.592;2023-07-02T10:50:24;20.30;1.00
20483;DHT22;10400;53.198;6.592;2023-07-02T10:52:52;20.20;1.00
20483;DHT22;10400;53.198;6.592;2023-07-02T10:55:25;20.20;1.00
20483;DHT22;10400;53.198;6.592;2023-07-02T10:58:03;19.90;1.00
20483;DHT22;10400;53.198;6.592;2023-07-02T11:00:29;20.10;1.00
20483;DHT22;10400;53.198;6.592;2023-07-02T11:02:55;20.10;7.90
20483;DHT22;10400;53.198;6.592;2023-07-02T11:05:21;20.00;1.00
20483;DHT22;10400;53.198;6.592;2023-07-02T11:07:47;19.70;1.00
20483;DHT22;10400;53.198;6.592;2023-07-02T11:10:21;19.60;1.00
20483;DHT22;10400;53.198;6.592;2023-07-02T11:12:47;19.20;47.90
20483;DHT22;10400;53.198;6.592;2023-07-02T11:15:17;19.20;99.90
20483;DHT22;10400;53.198;6.592;2023-07-02T11:17:43;19.10;99.90
20483;DHT22;10400;53.198;6.592;2023-07-02T11:20:10;19.20;99.90
20483;DHT22;10400;53.198;6.592;2023-07-02T11:22:37;19.10;1.00
20483;DHT22;10400;53.198;6.592;2023-07-02T11:25:21;19.10;1.00
20483;DHT22;10400;53.198;6.592;2023-07-02T11:27:47;19.00;1.00
20483;DHT22;10400;53.198;6.592;2023-07-02T11:30:13;19.00;1.00
20483;DHT22;10400;53.198;6.592;2023-07-02T11:32:49;19.20;1.00
20483;DHT22;10400;53.198;6.592;2023-07-02T11:35:16;19.60;1.00
20483;DHT22;10400;53.198;6.592;2023-07-02T11:37:42;19.60;1.00
20483;DHT22;10400;53.198;6.592;2023-07-02T11:40:10;19.70;1.00
20483;DHT22;10400;53.198;6.592;2023-07-02T11:42:36;19.70;1.00
20483;DHT22;10400;53.198;6.592;2023-07-02T11:45:01;20.00;1.00
20483;DHT22;10400;53.198;6.592;2023-07-02T11:47:27;20.50;1.00
20483;DHT22;10400;53.198;6.592;2023-07-02T11:49:53;20.30;1.00
20483;DHT22;10400;53.198;6.592;2023-07-02T11:52:20;20.40;1.00
20483;DHT22;10400;53.198;6.592;2023-07-02T11:54:46;20.30;1.00
20483;DHT22;10400;53.198;6.592;2023-07-02T11:57:12;20.30;1.00
20483;DHT22;10400;53.198;6.592;2023-07-02T11:59:38;20.10;1.00
20483;DHT22;10400;53.198;6.592;2023-07-02T12:02:04;19.80;1.00
20483;DHT22;10400;53.198;6.592;2023-07-02T12:04:29;19.70;1.00
20483;DHT22;10400;53.198;6.592;2023-07-02T12:06:55;19.90;1.00
20483;DHT22;10400;53.198;6.592;2023-07-02T12:09:21;19.90;1.00
20483;DHT22;10400;53.198;6.592;2023-07-02T12:11:46;20.10;1.00
20483;DHT22;10400;53.198;6.592;2023-07-02T12:14:12;19.70;1.00
20483;DHT22;10400;53.198;6.592;2023-07-02T12:16:38;20.00;1.00
20483;DHT22;10400;53.198;6.592;2023-07-02T12:19:04;20.30;1.00
20483;DHT22;10400;53.198;6.592;2023-07-02T12:21:29;20.50;1.00
20483;DHT22;10400;53.198;6.592;2023-07-02T12:23:55;20.50;1.00
20483;DHT22;10400;53.198;6.592;2023-07-02T12:26:21;20.90;1.00
20483;DHT22;10400;53.198;6.592;2023-07-02T12:28:48;20.50;1.00
20483;DHT22;10400;53.198;6.592;2023-07-02T12:31:13;20.10;1.00
20483;DHT22;10400;53.198;6.592;2023-07-02T12:33:39;20.10;1.00
20483;DHT22;10400;53.198;6.592;2023-07-02T12:36:05;20.00;1.00
20483;DHT22;10400;53.198;6.592;2023-07-02T12:38:31;20.20;1.00
20483;DHT22;10400;53.198;6.592;2023-07-02T12:40:56;20.60;1.00
20483;DHT22;10400;53.198;6.592;2023-07-02T12:43:22;20.50;1.00
20483;DHT22;10400;53.198;6.592;2023-07-02T12:45:48;20.30;1.00
20483;DHT22;10400;53.198;6.592;2023-07-02T12:48:13;20.40;1.00
20483;DHT22;10400;53.198;6.592;2023-07-02T12:50:39;20.00;1.00
20483;DHT22;10400;53.198;6.592;2023-07-02T12:53:05;19.90;1.00
20483;DHT22;10400;53.198;6.592;2023-07-02T12:55:31;19.80;1.00
20483;DHT22;10400;53.198;6.592;2023-07-02T12:57:57;19.70;1.00
20483;DHT22;10400;53.198;6.592;2023-07-02T13:00:22;19.60;1.00
20483;DHT22;10400;53.198;6.592;2023-07-02T13:02:49;19.40;1.00
20483;DHT22;10400;53.198;6.592;2023-07-02T13:05:14;19.40;1.00
20483;DHT22;10400;53.198;6.592;2023-07-02T13:07:40;19.30;1.00
20483;DHT22;10400;53.198;6.592;2023-07-02T13:10:06;19.20;1.00
20483;DHT22;10400;53.198;6.592;2023-07-02T13:12:32;19.30;1.00
20483;DHT22;10400;53.198;6.592;2023-07-02T13:14:58;19.50;1.00
20483;DHT22;10400;53.198;6.592;2023-07-02T13:17:24;19.70;1.00
20483;DHT22;10400;53.198;6.592;2023-07-02T13:19:49;19.80;1.00
20483;DHT22;10400;53.198;6.592;2023-07-02T13:22:15;19.70;1.00
20483;DHT22;10400;53.198;6.592;2023-07-02T13:24:41;19.70;1.00
20483;DHT22;10400;53.198;6.592;2023-07-02T13:27:13;20.00;1.00
20483;DHT22;10400;53.198;6.592;2023-07-02T13:29:40;20.40;1.00
20483;DHT22;10400;53.198;6.592;2023-07-02T13:32:06;20.80;1.00
20483;DHT22;10400;53.198;6.592;2023-07-02T13:34:32;21.10;1.00
20483;DHT22;10400;53.198;6.592;2023-07-02T13:36:58;20.70;1.00
20483;DHT22;10400;53.198;6.592;2023-07-02T13:39:23;20.10;1.00
20483;DHT22;10400;53.198;6.592;2023-07-02T13:41:50;19.80;1.00
20483;DHT22;10400;53.198;6.592;2023-07-02T13:44:16;19.60;1.00
20483;DHT22;10400;53.198;6.592;2023-07-02T13:46:43;19.60;1.00
20483;DHT22;10400;53.198;6.592;2023-07-02T13:49:10;19.80;1.00
20483;DHT22;10400;53.198;6.592;2023-07-02T13:51:36;19.80;1.00
20483;DHT22;10400;53.198;6.592;2023-07-02T13:54:01;19.70;1.00
20483;DHT22;10400;53.198;6.592;2023-07-02T13:56:27;19.70;1.00
20483;DHT22;10400;53.198;6.592;2023-07-02T14:01:25;19.80;1.00
20483;DHT22;10400;53.198;6.592;2023-07-02T14:03:50;19.80;1.00
20483;DHT22;10400;53.198;6.592;2023-07-02T14:06:17;19.90;1.00
20483;DHT22;10400;53.198;6.592;2023-07-02T14:08:42;19.70;1.00
20483;DHT22;10400;53.198;6.592;2023-07-02T14:11:08;19.70;1.00
20483;DHT22;10400;53.198;6.592;2023-07-02T14:13:34;19.70;1.00
20483;DHT22;10400;53.198;6.592;2023-07-02T14:16:00;19.70;1.00
20483;DHT22;10400;53.198;6.592;2023-07-02T14:18:25;19.60;1.00
20483;DHT22;10400;53.198;6.592;2023-07-02T14:20:51;19.40;1.00
20483;DHT22;10400;53.198;6.592;2023-07-02T14:23:17;19.10;1.00
20483;DHT22;10400;53.198;6.592;2023-07-02T14:25:43;19.00;1.00
20483;DHT22;10400;53.198;6.592;2023-07-02T14:28:09;18.80;1.00
20483;DHT22;10400;53.198;6.592;2023-07-02T14:30:34;18.90;1.00
20483;DHT22;10400;53.198;6.592;2023-07-02T14:33:00;18.70;1.00
20483;DHT22;10400;53.198;6.592;2023-07-02T14:35:26;18.70;1.00
20483;DHT22;10400;53.198;6.592;2023-07-02T14:37:54;18.60;1.00
20483;DHT22;10400;53.198;6.592;2023-07-02T14:40:19;18.60;1.00
20483;DHT22;10400;53.198;6.592;2023-07-02T14:42:45;18.60;1.00
20483;DHT22;10400;53.198;6.592;2023-07-02T14:45:11;18.70;1.00
20483;DHT22;10400;53.198;6.592;2023-07-02T14:47:38;18.80;1.00
20483;DHT22;10400;53.198;6.592;2023-07-02T14:50:04;18.90;1.00
20483;DHT22;10400;53.198;6.592;2023-07-02T14:52:30;19.10;1.00
20483;DHT22;10400;53.198;6.592;2023-07-02T14:54:56;19.30;1.00
20483;DHT22;10400;53.198;6.592;2023-07-02T14:57:21;19.30;1.00
20483;DHT22;10400;53.198;6.592;2023-07-02T14:59:48;19.50;1.00
20483;DHT22;10400;53.198;6.592;2023-07-02T15:02:16;19.80;1.00
20483;DHT22;10400;53.198;6.592;2023-07-02T15:04:41;19.80;99.90
20483;DHT22;10400;53.198;6.592;2023-07-02T15:07:07;19.90;1.00
20483;DHT22;10400;53.198;6.592;2023-07-02T15:09:33;19.80;1.00
20483;DHT22;10400;53.198;6.592;2023-07-02T15:11:59;19.60;1.00
20483;DHT22;10400;53.198;6.592;2023-07-02T15:14:26;19.70;1.00
20483;DHT22;10400;53.198;6.592;2023-07-02T15:16:51;20.00;1.00
20483;DHT22;10400;53.198;6.592;2023-07-02T15:19:18;20.30;1.00
20483;DHT22;10400;53.198;6.592;2023-07-02T15:21:44;20.20;1.00
20483;DHT22;10400;53.198;6.592;2023-07-02T15:24:09;20.00;1.00
20483;DHT22;10400;53.198;6.592;2023-07-02T15:26:37;19.80;1.00
20483;DHT22;10400;53.198;6.592;2023-07-02T15:29:03;19.50;1.00
20483;DHT22;10400;53.198;6.592;2023-07-02T15:31:29;19.40;1.00
20483;DHT22;10400;53.198;6.592;2023-07-02T15:33:54;19.30;1.00
20483;DHT22;10400;53.198;6.592;2023-07-02T15:36:20;19.50;1.00
20483;DHT22;10400;53.198;6.592;2023-07-02T15:38:48;19.30;1.00
20483;DHT22;10400;53.198;6.592;2023-07-02T15:41:16;19.20;1.00